sensor_id;sensor_type;location;lat;lon;timestamp;pressure;altitude;pressure_sealevel;temperature;humidity
19576;BME280;41589;51.196;7.074;2022-08-19T00:03:08;98714.78;;;22.73;54.54
19576;BME280;41589;51.196;7.074;2022-08-19T00:08:09;98724.94;;;22.74;54.53
19576;BME280;41589;51.196;7.074;2022-08-19T00:13:09;98725.81;;;22.69;54.29
19576;BME280;41589;51.196;7.074;2022-08-19T00:18:10;98722.13;;;22.61;54.58
19576;BME280;41589;51.196;7.074;2022-08-19T00:23:11;98717.41;;;22.51;55.09
19576;BME280;41589;51.196;7.074;2022-08-19T00:28:11;98721.63;;;22.36;55.06
19576;BME280;41589;51.196;7.074;2022-08-19T00:33:12;98724.13;;;22.27;55.19
19576;BME280;41589;51.196;7.074;2022-08-19T00:38:14;98723.50;;;22.21;55.99
19576;BME280;41589;51.196;7.074;2022-08-19T00:43:19;98724.13;;;22.27;55.79
19576;BME280;41589;51.196;7.074;2022-08-19T00:48:21;98726.94;;;22.32;56.10
19576;BME280;41589;51.196;7.074;2022-08-19T00:53:26;98723.16;;;22.37;56.08
19576;BME280;41589;51.196;7.074;2022-08-19T00:58:32;98706.97;;;22.40;56.32
19576;BME280;41589;51.196;7.074;2022-08-19T01:03:33;98711.56;;;22.43;55.84
19576;BME280;41589;51.196;7.074;2022-08-19T01:08:34;98716.09;;;22.38;56.13
19576;BME280;41589;51.196;7.074;2022-08-19T01:13:35;98710.72;;;22.35;56.44
19576;BME280;41589;51.196;7.074;2022-08-19T01:18:40;98723.16;;;22.37;56.34
19576;BME280;41589;51.196;7.074;2022-08-19T01:23:42;98711.69;;;22.37;56.44
19576;BME280;41589;51.196;7.074;2022-08-19T01:28:44;98707.63;;;22.33;56.59
19576;BME280;41589;51.196;7.074;2022-08-19T01:33:45;98702.09;;;22.35;56.44
19576;BME280;41589;51.196;7.074;2022-08-19T01:38:46;98702.09;;;22.35;56.46
19576;BME280;41589;51.196;7.074;2022-08-19T01:43:54;98699.59;;;22.31;56.21
19576;BME280;41589;51.196;7.074;2022-08-19T01:48:54;98712.66;;;22.27;56.47
19576;BME280;41589;51.196;7.074;2022-08-19T01:53:55;98699.44;;;22.24;56.27
19576;BME280;41589;51.196;7.074;2022-08-19T01:58:58;98690.44;;;22.19;56.79
19576;BME280;41589;51.196;7.074;2022-08-19T02:04:00;98683.06;;;22.11;56.51
19576;BME280;41589;51.196;7.074;2022-08-19T02:09:01;98681.75;;;21.99;56.45
19576;BME280;41589;51.196;7.074;2022-08-19T02:14:04;98692.34;;;21.90;56.70
19576;BME280;41589;51.196;7.074;2022-08-19T02:19:06;98688.38;;;21.80;56.88
19576;BME280;41589;51.196;7.074;2022-08-19T02:24:06;98703.03;;;21.77;57.25
19576;BME280;41589;51.196;7.074;2022-08-19T02:29:07;98694.53;;;21.84;57.50
19576;BME280;41589;51.196;7.074;2022-08-19T02:34:07;98702.25;;;21.89;57.55
19576;BME280;41589;51.196;7.074;2022-08-19T02:39:10;98694.88;;;21.81;57.19
19576;BME280;41589;51.196;7.074;2022-08-19T02:44:10;98707.19;;;21.76;57.25
19576;BME280;41589;51.196;7.074;2022-08-19T02:49:10;98706.97;;;21.74;57.59
19576;BME280;41589;51.196;7.074;2022-08-19T02:54:12;98702.78;;;21.75;57.68
19576;BME280;41589;51.196;7.074;2022-08-19T02:59:12;98714.03;;;21.73;57.37
19576;BME280;41589;51.196;7.074;2022-08-19T03:04:14;98712.63;;;21.66;57.38
19576;BME280;41589;51.196;7.074;2022-08-19T03:09:16;98717.41;;;21.58;57.87
19576;BME280;41589;51.196;7.074;2022-08-19T03:14:17;98702.28;;;21.44;58.23
19576;BME280;41589;51.196;7.074;2022-08-19T03:19:19;98702.50;;;21.33;58.59
19576;BME280;41589;51.196;7.074;2022-08-19T03:24:21;98705.91;;;21.31;58.25
19576;BME280;41589;51.196;7.074;2022-08-19T03:29:21;98705.16;;;21.31;58.69
19576;BME280;41589;51.196;7.074;2022-08-19T03:34:24;98708.34;;;21.27;58.49
19576;BME280;41589;51.196;7.074;2022-08-19T03:39:27;98724.53;;;21.25;58.86
19576;BME280;41589;51.196;7.074;2022-08-19T03:44:29;98721.19;;;21.21;59.20
19576;BME280;41589;51.196;7.074;2022-08-19T03:49:31;98713.16;;;21.19;59.24
19576;BME280;41589;51.196;7.074;2022-08-19T03:54:33;98722.50;;;21.20;59.37
19576;BME280;41589;51.196;7.074;2022-08-19T03:59:35;98721.75;;;21.19;59.29
19576;BME280;41589;51.196;7.074;2022-08-19T04:04:41;98724.59;;;21.19;59.45
19576;BME280;41589;51.196;7.074;2022-08-19T04:09:42;98716.03;;;21.19;59.34
19576;BME280;41589;51.196;7.074;2022-08-19T04:14:42;98725.16;;;21.18;59.38
19576;BME280;41589;51.196;7.074;2022-08-19T04:19:43;98727.78;;;21.16;59.52
19576;BME280;41589;51.196;7.074;2022-08-19T04:24:43;98723.16;;;21.13;59.60
19576;BME280;41589;51.196;7.074;2022-08-19T04:29:44;98737.22;;;21.11;59.76
19576;BME280;41589;51.196;7.074;2022-08-19T04:34:44;98731.50;;;21.11;60.10
19576;BME280;41589;51.196;7.074;2022-08-19T04:39:44;98736.47;;;21.10;59.89
19576;BME280;41589;51.196;7.074;2022-08-19T04:45:05;98749.44;;;21.11;60.24
19576;BME280;41589;51.196;7.074;2022-08-19T04:50:09;98748.38;;;21.14;60.56
19576;BME280;41589;51.196;7.074;2022-08-19T04:55:11;98746.50;;;21.17;60.26
19576;BME280;41589;51.196;7.074;2022-08-19T05:00:12;98762.44;;;21.12;60.00
19576;BME280;41589;51.196;7.074;2022-08-19T05:05:13;98768.94;;;21.13;60.41
19576;BME280;41589;51.196;7.074;2022-08-19T05:10:14;98769.53;;;21.24;60.16
19576;BME280;41589;51.196;7.074;2022-08-19T05:15:14;98771.19;;;21.33;59.75
19576;BME280;41589;51.196;7.074;2022-08-19T05:20:14;98764.84;;;21.40;60.21
19576;BME280;41589;51.196;7.074;2022-08-19T05:25:33;98768.47;;;21.41;60.15
19576;BME280;41589;51.196;7.074;2022-08-19T05:30:34;98775.66;;;21.47;60.07
19576;BME280;41589;51.196;7.074;2022-08-19T05:35:36;98778.75;;;21.49;60.41
19576;BME280;41589;51.196;7.074;2022-08-19T05:40:38;98779.50;;;21.50;59.86
19576;BME280;41589;51.196;7.074;2022-08-19T05:45:40;98780.47;;;21.39;60.33
19576;BME280;41589;51.196;7.074;2022-08-19T05:50:41;98771.00;;;21.44;60.40
19576;BME280;41589;51.196;7.074;2022-08-19T05:55:41;98786.34;;;21.47;60.28
19576;BME280;41589;51.196;7.074;2022-08-19T06:00:43;98781.28;;;21.53;60.56
19576;BME280;41589;51.196;7.074;2022-08-19T06:05:44;98783.16;;;21.50;60.37
19576;BME280;41589;51.196;7.074;2022-08-19T06:10:44;98780.19;;;21.56;60.66
19576;BME280;41589;51.196;7.074;2022-08-19T06:15:45;98781.88;;;21.65;60.77
19576;BME280;41589;51.196;7.074;2022-08-19T06:20:46;98789.38;;;21.68;60.51
19576;BME280;41589;51.196;7.074;2022-08-19T06:25:47;98775.50;;;21.72;60.68
19576;BME280;41589;51.196;7.074;2022-08-19T06:30:47;98773.75;;;21.69;60.69
19576;BME280;41589;51.196;7.074;2022-08-19T06:35:48;98781.78;;;21.70;60.93
19576;BME280;41589;51.196;7.074;2022-08-19T06:40:48;98774.06;;;21.65;60.65
19576;BME280;41589;51.196;7.074;2022-08-19T06:45:48;98773.06;;;21.63;61.39
19576;BME280;41589;51.196;7.074;2022-08-19T06:50:52;98775.63;;;21.79;61.10
19576;BME280;41589;51.196;7.074;2022-08-19T06:55:53;98788.97;;;21.77;61.24
19576;BME280;41589;51.196;7.074;2022-08-19T07:01:02;98782.00;;;21.72;61.14
19576;BME280;41589;51.196;7.074;2022-08-19T07:06:09;98785.41;;;21.71;62.05
19576;BME280;41589;51.196;7.074;2022-08-19T07:11:12;98794.59;;;21.96;61.65
19576;BME280;41589;51.196;7.074;2022-08-19T07:16:17;98797.13;;;21.99;61.62
19576;BME280;41589;51.196;7.074;2022-08-19T07:21:25;98800.13;;;22.20;61.37
19576;BME280;41589;51.196;7.074;2022-08-19T07:26:32;98818.53;;;22.25;60.80
19576;BME280;41589;51.196;7.074;2022-08-19T07:31:33;98821.28;;;22.17;60.95
19576;BME280;41589;51.196;7.074;2022-08-19T07:36:38;98822.84;;;22.18;61.30
19576;BME280;41589;51.196;7.074;2022-08-19T07:41:41;98833.63;;;22.25;61.16
19576;BME280;41589;51.196;7.074;2022-08-19T07:46:45;98829.13;;;22.30;61.60
19576;BME280;41589;51.196;7.074;2022-08-19T07:51:49;98845.66;;;22.24;61.59
19576;BME280;41589;51.196;7.074;2022-08-19T07:56:50;98851.66;;;22.39;61.43
19576;BME280;41589;51.196;7.074;2022-08-19T08:01:50;98851.28;;;22.69;61.16
19576;BME280;41589;51.196;7.074;2022-08-19T08:06:52;98852.84;;;22.70;60.66
19576;BME280;41589;51.196;7.074;2022-08-19T08:12:18;98857.78;;;22.83;60.64
19576;BME280;41589;51.196;7.074;2022-08-19T08:17:22;98870.38;;;22.66;60.32
19576;BME280;41589;51.196;7.074;2022-08-19T08:22:23;98880.63;;;22.62;60.67
19576;BME280;41589;51.196;7.074;2022-08-19T08:27:44;98880.50;;;22.67;60.69
19576;BME280;41589;51.196;7.074;2022-08-19T08:32:46;98881.81;;;22.80;61.00
19576;BME280;41589;51.196;7.074;2022-08-19T08:37:48;98879.16;;;23.08;60.22
19576;BME280;41589;51.196;7.074;2022-08-19T08:42:57;98877.66;;;23.28;59.45
19576;BME280;41589;51.196;7.074;2022-08-19T08:48:10;98875.19;;;23.45;59.31
19576;BME280;41589;51.196;7.074;2022-08-19T08:53:16;98869.66;;;23.68;57.95
19576;BME280;41589;51.196;7.074;2022-08-19T08:58:26;98861.41;;;24.06;57.40
19576;BME280;41589;51.196;7.074;2022-08-19T09:03:29;98857.38;;;24.09;56.71
19576;BME280;41589;51.196;7.074;2022-08-19T09:08:53;98863.47;;;24.55;56.45
19576;BME280;41589;51.196;7.074;2022-08-19T09:19:15;98871.53;;;25.44;54.23
19576;BME280;41589;51.196;7.074;2022-08-19T09:24:17;98865.69;;;25.96;52.15
19576;BME280;41589;51.196;7.074;2022-08-19T09:29:18;98855.69;;;26.35;50.88
19576;BME280;41589;51.196;7.074;2022-08-19T09:34:19;98860.22;;;26.61;50.10
19576;BME280;41589;51.196;7.074;2022-08-19T09:39:20;98857.38;;;26.45;49.14
19576;BME280;41589;51.196;7.074;2022-08-19T09:44:21;98847.22;;;26.37;48.72
19576;BME280;41589;51.196;7.074;2022-08-19T09:49:24;98853.94;;;26.09;48.82
19576;BME280;41589;51.196;7.074;2022-08-19T09:54:25;98858.00;;;25.83;48.11
19576;BME280;41589;51.196;7.074;2022-08-19T09:59:26;98866.25;;;25.86;48.40
19576;BME280;41589;51.196;7.074;2022-08-19T10:04:44;98857.78;;;26.11;49.02
19576;BME280;41589;51.196;7.074;2022-08-19T10:10:04;98858.16;;;26.23;48.14
19576;BME280;41589;51.196;7.074;2022-08-19T10:15:09;98854.09;;;26.57;47.48
19576;BME280;41589;51.196;7.074;2022-08-19T10:25:42;98842.59;;;26.26;44.76
19576;BME280;41589;51.196;7.074;2022-08-19T10:43:20;98845.44;;;27.12;44.35
19576;BME280;41589;51.196;7.074;2022-08-19T10:48:26;98853.91;;;27.10;43.40
19576;BME280;41589;51.196;7.074;2022-08-19T10:53:26;98847.81;;;26.98;43.60
19576;BME280;41589;51.196;7.074;2022-08-19T10:58:27;98848.59;;;26.84;42.66
19576;BME280;41589;51.196;7.074;2022-08-19T11:03:31;98846.41;;;26.44;43.34
19576;BME280;41589;51.196;7.074;2022-08-19T11:08:38;98844.31;;;26.37;43.18
19576;BME280;41589;51.196;7.074;2022-08-19T11:13:40;98846.59;;;26.23;43.85
19576;BME280;41589;51.196;7.074;2022-08-19T11:18:44;98857.22;;;26.28;44.32
19576;BME280;41589;51.196;7.074;2022-08-19T11:23:51;98839.69;;;26.11;43.65
19576;BME280;41589;51.196;7.074;2022-08-19T11:29:24;98833.53;;;26.22;44.03
19576;BME280;41589;51.196;7.074;2022-08-19T11:35:01;98844.28;;;26.52;43.61
19576;BME280;41589;51.196;7.074;2022-08-19T11:45:27;98833.41;;;26.75;43.07
19576;BME280;41589;51.196;7.074;2022-08-19T11:55:45;98815.22;;;26.58;42.95
19576;BME280;41589;51.196;7.074;2022-08-19T12:00:45;98826.94;;;26.60;42.61
19576;BME280;41589;51.196;7.074;2022-08-19T12:05:46;98822.59;;;26.36;43.57
19576;BME280;41589;51.196;7.074;2022-08-19T12:10:46;98821.00;;;26.50;43.27
19576;BME280;41589;51.196;7.074;2022-08-19T12:15:47;98817.13;;;26.63;42.38
19576;BME280;41589;51.196;7.074;2022-08-19T12:20:50;98814.97;;;26.71;42.77
19576;BME280;41589;51.196;7.074;2022-08-19T12:25:52;98824.91;;;27.00;41.16
19576;BME280;41589;51.196;7.074;2022-08-19T12:30:52;98806.66;;;27.23;40.38
19576;BME280;41589;51.196;7.074;2022-08-19T12:35:53;98811.81;;;26.99;40.58
19576;BME280;41589;51.196;7.074;2022-08-19T12:40:53;98813.47;;;27.10;39.65
19576;BME280;41589;51.196;7.074;2022-08-19T12:45:54;98809.88;;;27.02;39.25
19576;BME280;41589;51.196;7.074;2022-08-19T12:50:54;98801.50;;;27.14;39.67
19576;BME280;41589;51.196;7.074;2022-08-19T12:55:55;98801.53;;;27.39;38.53
19576;BME280;41589;51.196;7.074;2022-08-19T13:00:56;98794.78;;;27.44;38.76
19576;BME280;41589;51.196;7.074;2022-08-19T13:05:57;98803.16;;;27.32;38.26
19576;BME280;41589;51.196;7.074;2022-08-19T13:10:57;98790.56;;;27.12;38.88
19576;BME280;41589;51.196;7.074;2022-08-19T13:16:00;98789.81;;;27.04;39.55
19576;BME280;41589;51.196;7.074;2022-08-19T13:21:07;98778.00;;;27.17;39.22
19576;BME280;41589;51.196;7.074;2022-08-19T13:26:10;98775.88;;;27.18;38.93
19576;BME280;41589;51.196;7.074;2022-08-19T13:31:15;98773.69;;;27.26;37.94
19576;BME280;41589;51.196;7.074;2022-08-19T13:36:35;98765.09;;;27.18;38.23
19576;BME280;41589;51.196;7.074;2022-08-19T13:41:36;98766.22;;;27.23;37.53
19576;BME280;41589;51.196;7.074;2022-08-19T13:46:38;98762.78;;;27.17;37.45
19576;BME280;41589;51.196;7.074;2022-08-19T13:51:39;98752.53;;;26.98;37.43
19576;BME280;41589;51.196;7.074;2022-08-19T13:56:42;98744.47;;;27.22;37.48
19576;BME280;41589;51.196;7.074;2022-08-19T14:01:43;98739.59;;;27.57;37.64
19576;BME280;41589;51.196;7.074;2022-08-19T14:06:45;98742.47;;;27.82;36.28
19576;BME280;41589;51.196;7.074;2022-08-19T14:11:48;98736.53;;;27.97;35.84
19576;BME280;41589;51.196;7.074;2022-08-19T14:16:51;98739.78;;;28.18;35.51
19576;BME280;41589;51.196;7.074;2022-08-19T14:21:52;98746.28;;;28.27;34.50
19576;BME280;41589;51.196;7.074;2022-08-19T14:26:52;98750.38;;;27.99;34.65
19576;BME280;41589;51.196;7.074;2022-08-19T14:31:52;98754.09;;;27.74;35.50
19576;BME280;41589;51.196;7.074;2022-08-19T14:36:53;98751.38;;;27.76;35.19
19576;BME280;41589;51.196;7.074;2022-08-19T14:41:54;98760.88;;;27.69;34.87
19576;BME280;41589;51.196;7.074;2022-08-19T14:46:54;98773.03;;;27.93;34.94
19576;BME280;41589;51.196;7.074;2022-08-19T14:51:54;98773.34;;;27.97;34.02
19576;BME280;41589;51.196;7.074;2022-08-19T14:56:55;98768.22;;;27.87;33.97
19576;BME280;41589;51.196;7.074;2022-08-19T15:01:55;98766.34;;;28.07;34.23
19576;BME280;41589;51.196;7.074;2022-08-19T15:06:56;98778.31;;;28.04;33.35
19576;BME280;41589;51.196;7.074;2022-08-19T15:11:56;98769.50;;;27.77;34.15
19576;BME280;41589;51.196;7.074;2022-08-19T15:16:59;98767.72;;;27.81;33.94
19576;BME280;41589;51.196;7.074;2022-08-19T15:21:59;98766.91;;;28.06;33.15
19576;BME280;41589;51.196;7.074;2022-08-19T15:27:00;98778.97;;;27.95;32.04
19576;BME280;41589;51.196;7.074;2022-08-19T15:32:00;98777.53;;;28.03;32.31
19576;BME280;41589;51.196;7.074;2022-08-19T15:37:01;98784.75;;;27.95;33.49
19576;BME280;41589;51.196;7.074;2022-08-19T15:42:03;98796.38;;;28.12;33.26
19576;BME280;41589;51.196;7.074;2022-08-19T15:47:04;98794.19;;;27.95;33.27
19576;BME280;41589;51.196;7.074;2022-08-19T15:52:05;98797.28;;;27.72;33.02
19576;BME280;41589;51.196;7.074;2022-08-19T15:57:06;98790.13;;;27.48;33.88
19576;BME280;41589;51.196;7.074;2022-08-19T16:02:25;98795.34;;;27.50;34.64
19576;BME280;41589;51.196;7.074;2022-08-19T16:07:44;98789.63;;;27.67;34.58
19576;BME280;41589;51.196;7.074;2022-08-19T16:12:44;98792.16;;;27.63;34.58
19576;BME280;41589;51.196;7.074;2022-08-19T16:17:45;98797.81;;;27.78;34.03
19576;BME280;41589;51.196;7.074;2022-08-19T16:22:47;98802.44;;;27.81;34.10
19576;BME280;41589;51.196;7.074;2022-08-19T16:27:47;98807.28;;;27.46;34.49
19576;BME280;41589;51.196;7.074;2022-08-19T16:32:48;98808.78;;;27.55;34.71
19576;BME280;41589;51.196;7.074;2022-08-19T16:37:48;98820.41;;;27.72;35.02
19576;BME280;41589;51.196;7.074;2022-08-19T16:42:49;98815.13;;;27.61;34.80
19576;BME280;41589;51.196;7.074;2022-08-19T16:47:49;98809.88;;;27.35;35.70
19576;BME280;41589;51.196;7.074;2022-08-19T16:52:49;98808.66;;;27.13;36.29
19576;BME280;41589;51.196;7.074;2022-08-19T16:57:50;98815.31;;;26.90;36.28
19576;BME280;41589;51.196;7.074;2022-08-19T17:02:50;98816.34;;;26.62;36.98
19576;BME280;41589;51.196;7.074;2022-08-19T17:07:51;98813.31;;;26.45;37.92
19576;BME280;41589;51.196;7.074;2022-08-19T17:12:51;98812.75;;;26.24;38.76
19576;BME280;41589;51.196;7.074;2022-08-19T17:17:58;98816.03;;;26.20;39.09
19576;BME280;41589;51.196;7.074;2022-08-19T17:22:59;98815.09;;;26.17;39.59
19576;BME280;41589;51.196;7.074;2022-08-19T17:28:14;98817.78;;;26.15;39.82
19576;BME280;41589;51.196;7.074;2022-08-19T17:33:15;98815.09;;;26.17;40.68
19576;BME280;41589;51.196;7.074;2022-08-19T17:38:18;98810.47;;;26.22;40.25
19576;BME280;41589;51.196;7.074;2022-08-19T17:43:20;98815.28;;;26.19;40.15
19576;BME280;41589;51.196;7.074;2022-08-19T17:48:20;98804.88;;;26.24;40.58
19576;BME280;41589;51.196;7.074;2022-08-19T17:53:23;98811.81;;;26.13;40.38
19576;BME280;41589;51.196;7.074;2022-08-19T17:58:23;98798.56;;;26.18;40.52
19576;BME280;41589;51.196;7.074;2022-08-19T18:03:26;98806.63;;;26.12;40.89
19576;BME280;41589;51.196;7.074;2022-08-19T18:08:29;98807.81;;;26.01;40.65
19576;BME280;41589;51.196;7.074;2022-08-19T18:13:30;98810.13;;;25.95;40.75
19576;BME280;41589;51.196;7.074;2022-08-19T18:18:30;98805.88;;;25.81;41.03
19576;BME280;41589;51.196;7.074;2022-08-19T18:23:31;98807.63;;;25.76;41.19
19576;BME280;41589;51.196;7.074;2022-08-19T18:28:32;98819.88;;;25.54;41.67
19576;BME280;41589;51.196;7.074;2022-08-19T18:33:33;98815.63;;;25.40;42.30
19576;BME280;41589;51.196;7.074;2022-08-19T18:38:33;98816.41;;;25.32;42.94
19576;BME280;41589;51.196;7.074;2022-08-19T18:43:53;98813.13;;;25.21;43.28
19576;BME280;41589;51.196;7.074;2022-08-19T18:49:16;98817.31;;;25.20;43.41
19576;BME280;41589;51.196;7.074;2022-08-19T18:54:18;98824.00;;;25.07;44.59
19576;BME280;41589;51.196;7.074;2022-08-19T18:59:18;98823.75;;;24.90;46.05
19576;BME280;41589;51.196;7.074;2022-08-19T19:04:23;98826.34;;;24.72;47.29
19576;BME280;41589;51.196;7.074;2022-08-19T19:09:25;98837.22;;;24.59;48.11
19576;BME280;41589;51.196;7.074;2022-08-19T19:14:29;98847.78;;;24.64;48.17
19576;BME280;41589;51.196;7.074;2022-08-19T19:19:33;98860.78;;;24.57;48.27
19576;BME280;41589;51.196;7.074;2022-08-19T19:24:33;98851.38;;;24.57;48.38
19576;BME280;41589;51.196;7.074;2022-08-19T19:29:36;98858.78;;;24.44;48.74
19576;BME280;41589;51.196;7.074;2022-08-19T19:34:38;98863.22;;;24.45;48.78
19576;BME280;41589;51.196;7.074;2022-08-19T19:39:38;98867.13;;;24.35;48.92
19576;BME280;41589;51.196;7.074;2022-08-19T19:44:40;98866.75;;;24.31;49.17
19576;BME280;41589;51.196;7.074;2022-08-19T19:49:41;98863.22;;;24.17;49.51
19576;BME280;41589;51.196;7.074;2022-08-19T19:54:41;98878.69;;;24.14;49.89
19576;BME280;41589;51.196;7.074;2022-08-19T19:59:42;98877.66;;;24.04;50.29
19576;BME280;41589;51.196;7.074;2022-08-19T20:04:43;98886.63;;;24.00;50.39
19576;BME280;41589;51.196;7.074;2022-08-19T20:09:44;98879.47;;;23.94;50.68
19576;BME280;41589;51.196;7.074;2022-08-19T20:14:44;98889.44;;;23.93;50.83
19576;BME280;41589;51.196;7.074;2022-08-19T20:19:45;98891.53;;;23.92;50.77
19576;BME280;41589;51.196;7.074;2022-08-19T20:24:46;98900.53;;;23.88;51.07
19576;BME280;41589;51.196;7.074;2022-08-19T20:29:47;98911.81;;;23.86;51.23
19576;BME280;41589;51.196;7.074;2022-08-19T20:34:47;98904.66;;;23.80;51.23
19576;BME280;41589;51.196;7.074;2022-08-19T20:39:49;98905.22;;;23.78;51.33
19576;BME280;41589;51.196;7.074;2022-08-19T20:44:49;98914.28;;;23.69;51.75
19576;BME280;41589;51.196;7.074;2022-08-19T20:49:50;98909.66;;;23.66;52.40
19576;BME280;41589;51.196;7.074;2022-08-19T20:54:53;98916.50;;;23.63;52.53
19576;BME280;41589;51.196;7.074;2022-08-19T20:59:53;98919.75;;;23.59;53.11
19576;BME280;41589;51.196;7.074;2022-08-19T21:04:54;98924.03;;;23.66;53.61
19576;BME280;41589;51.196;7.074;2022-08-19T21:09:54;98917.97;;;23.70;53.46
19576;BME280;41589;51.196;7.074;2022-08-19T21:14:54;98924.03;;;23.66;53.73
19576;BME280;41589;51.196;7.074;2022-08-19T21:19:55;98917.84;;;23.62;54.08
19576;BME280;41589;51.196;7.074;2022-08-19T21:24:55;98915.31;;;23.58;54.13
19576;BME280;41589;51.196;7.074;2022-08-19T21:29:56;98923.38;;;23.60;54.28
19576;BME280;41589;51.196;7.074;2022-08-19T21:34:56;98923.94;;;23.58;54.72
19576;BME280;41589;51.196;7.074;2022-08-19T21:39:56;98925.19;;;23.50;55.14
19576;BME280;41589;51.196;7.074;2022-08-19T21:44:57;98928.31;;;23.39;55.50
19576;BME280;41589;51.196;7.074;2022-08-19T21:49:57;98922.38;;;23.37;55.59
19576;BME280;41589;51.196;7.074;2022-08-19T21:54:57;98924.03;;;23.32;56.47
19576;BME280;41589;51.196;7.074;2022-08-19T21:59:58;98928.22;;;23.31;56.49
19576;BME280;41589;51.196;7.074;2022-08-19T22:04:58;98935.19;;;23.36;56.22
19576;BME280;41589;51.196;7.074;2022-08-19T22:09:59;98927.81;;;23.27;56.68
19576;BME280;41589;51.196;7.074;2022-08-19T22:15:00;98932.13;;;23.20;56.89
19576;BME280;41589;51.196;7.074;2022-08-19T22:20:01;98934.31;;;23.27;57.05
19576;BME280;41589;51.196;7.074;2022-08-19T22:25:08;98925.81;;;23.22;57.31
19576;BME280;41589;51.196;7.074;2022-08-19T22:30:11;98935.22;;;23.09;58.05
19576;BME280;41589;51.196;7.074;2022-08-19T22:35:15;98930.06;;;23.08;57.88
19576;BME280;41589;51.196;7.074;2022-08-19T22:40:17;98944.25;;;23.00;58.46
19576;BME280;41589;51.196;7.074;2022-08-19T22:45:18;98943.75;;;23.01;58.91
19576;BME280;41589;51.196;7.074;2022-08-19T22:50:19;98940.84;;;22.88;59.29
19576;BME280;41589;51.196;7.074;2022-08-19T22:55:19;98943.06;;;22.95;59.48
19576;BME280;41589;51.196;7.074;2022-08-19T23:00:25;98938.66;;;22.94;60.07
19576;BME280;41589;51.196;7.074;2022-08-19T23:05:27;98930.16;;;22.89;60.25
19576;BME280;41589;51.196;7.074;2022-08-19T23:10:28;98928.81;;;22.90;60.37
19576;BME280;41589;51.196;7.074;2022-08-19T23:15:30;98923.44;;;22.86;60.72
19576;BME280;41589;51.196;7.074;2022-08-19T23:20:34;98930.50;;;22.85;61.09
19576;BME280;41589;51.196;7.074;2022-08-19T23:25:36;98929.72;;;22.85;61.14
19576;BME280;41589;51.196;7.074;2022-08-19T23:30:41;98926.94;;;22.79;61.63
19576;BME280;41589;51.196;7.074;2022-08-19T23:35:42;98920.22;;;22.76;61.76
19576;BME280;41589;51.196;7.074;2022-08-19T23:40:43;98930.50;;;22.72;62.21
19576;BME280;41589;51.196;7.074;2022-08-19T23:45:45;98931.28;;;22.72;62.33
19576;BME280;41589;51.196;7.074;2022-08-19T23:50:46;98919.81;;;22.72;62.31
19576;BME280;41589;51.196;7.074;2022-08-19T23:55:47;98924.88;;;22.66;62.93
